sensor_id;sensor_type;location;lat;lon;timestamp;temperature;humidity
5200;DHT22;2619;47.868;11.892;2023-05-07T00:00:33;10.50;99.90
5200;DHT22;2619;47.868;11.892;2023-05-07T00:02:59;10.40;99.90
5200;DHT22;2619;47.868;11.892;2023-05-07T00:05:25;10.40;99.90
5200;DHT22;2619;47.868;11.892;2023-05-07T00:07:51;10.40;99.90
5200;DHT22;2619;47.868;11.892;2023-05-07T00:10:18;10.40;99.90
5200;DHT22;2619;47.868;11.892;2023-05-07T00:12:43;10.30;99.90
5200;DHT22;2619;47.868;11.892;2023-05-07T00:15:09;10.30;99.90
5200;DHT22;2619;47.868;11.892;2023-05-07T00:17:35;10.30;99.90
5200;DHT22;2619;47.868;11.892;2023-05-07T00:20:02;10.30;99.90
5200;DHT22;2619;47.868;11.892;2023-05-07T00:22:28;10.30;99.90
5200;DHT22;2619;47.868;11.892;2023-05-07T00:24:55;10.30;99.90
5200;DHT22;2619;47.868;11.892;2023-05-07T00:27:21;10.30;99.90
5200;DHT22;2619;47.868;11.892;2023-05-07T00:29:47;10.30;99.90
5200;DHT22;2619;47.868;11.892;2023-05-07T00:32:12;10.30;99.90
5200;DHT22;2619;47.868;11.892;2023-05-07T00:34:38;10.30;99.90
5200;DHT22;2619;47.868;11.892;2023-05-07T00:37:04;10.30;99.90
5200;DHT22;2619;47.868;11.892;2023-05-07T00:39:30;10.40;99.90
5200;DHT22;2619;47.868;11.892;2023-05-07T00:41:56;10.40;99.90
5200;DHT22;2619;47.868;11.892;2023-05-07T00:44:22;10.40;99.90
5200;DHT22;2619;47.868;11.892;2023-05-07T00:46:49;10.30;99.90
5200;DHT22;2619;47.868;11.892;2023-05-07T00:49:15;10.40;99.90
5200;DHT22;2619;47.868;11.892;2023-05-07T00:51:41;10.40;99.90
5200;DHT22;2619;47.868;11.892;2023-05-07T00:54:07;10.40;99.90
5200;DHT22;2619;47.868;11.892;2023-05-07T00:56:34;10.50;99.90
5200;DHT22;2619;47.868;11.892;2023-05-07T00:59:01;10.50;99.90
5200;DHT22;2619;47.868;11.892;2023-05-07T01:01:27;10.40;99.90
5200;DHT22;2619;47.868;11.892;2023-05-07T01:03:53;10.30;99.90
5200;DHT22;2619;47.868;11.892;2023-05-07T01:06:19;10.30;99.90
5200;DHT22;2619;47.868;11.892;2023-05-07T01:08:46;10.30;99.90
5200;DHT22;2619;47.868;11.892;2023-05-07T01:11:12;10.30;99.90
5200;DHT22;2619;47.868;11.892;2023-05-07T01:13:39;10.20;99.90
5200;DHT22;2619;47.868;11.892;2023-05-07T01:16:06;10.20;99.90
5200;DHT22;2619;47.868;11.892;2023-05-07T01:18:32;10.20;99.90
5200;DHT22;2619;47.868;11.892;2023-05-07T01:20:59;10.20;99.90
5200;DHT22;2619;47.868;11.892;2023-05-07T01:23:27;10.20;99.90
5200;DHT22;2619;47.868;11.892;2023-05-07T01:25:54;10.20;99.90
5200;DHT22;2619;47.868;11.892;2023-05-07T01:28:20;10.10;99.90
5200;DHT22;2619;47.868;11.892;2023-05-07T01:30:51;10.00;99.90
5200;DHT22;2619;47.868;11.892;2023-05-07T01:33:20;10.00;99.90
5200;DHT22;2619;47.868;11.892;2023-05-07T01:35:50;10.00;99.90
5200;DHT22;2619;47.868;11.892;2023-05-07T01:38:18;9.90;99.90
5200;DHT22;2619;47.868;11.892;2023-05-07T01:40:44;9.90;99.90
5200;DHT22;2619;47.868;11.892;2023-05-07T01:43:10;9.90;99.90
5200;DHT22;2619;47.868;11.892;2023-05-07T01:45:36;9.90;99.90
5200;DHT22;2619;47.868;11.892;2023-05-07T01:48:02;9.90;99.90
5200;DHT22;2619;47.868;11.892;2023-05-07T01:50:29;9.80;99.90
5200;DHT22;2619;47.868;11.892;2023-05-07T01:52:55;9.90;99.90
5200;DHT22;2619;47.868;11.892;2023-05-07T01:55:20;9.90;99.90
5200;DHT22;2619;47.868;11.892;2023-05-07T01:57:46;9.80;99.90
5200;DHT22;2619;47.868;11.892;2023-05-07T02:00:12;9.80;99.90
5200;DHT22;2619;47.868;11.892;2023-05-07T02:02:37;9.80;99.90
5200;DHT22;2619;47.868;11.892;2023-05-07T02:05:04;9.70;99.90
5200;DHT22;2619;47.868;11.892;2023-05-07T02:07:29;9.70;99.90
5200;DHT22;2619;47.868;11.892;2023-05-07T02:09:55;9.60;99.90
5200;DHT22;2619;47.868;11.892;2023-05-07T02:12:22;9.60;99.90
5200;DHT22;2619;47.868;11.892;2023-05-07T02:14:47;9.70;99.90
5200;DHT22;2619;47.868;11.892;2023-05-07T02:17:13;9.70;99.90
5200;DHT22;2619;47.868;11.892;2023-05-07T02:19:39;9.60;99.90
5200;DHT22;2619;47.868;11.892;2023-05-07T02:22:04;9.60;99.90
5200;DHT22;2619;47.868;11.892;2023-05-07T02:24:30;9.60;99.90
5200;DHT22;2619;47.868;11.892;2023-05-07T02:26:55;9.60;99.90
5200;DHT22;2619;47.868;11.892;2023-05-07T02:29:21;9.70;99.90
5200;DHT22;2619;47.868;11.892;2023-05-07T02:31:47;9.60;99.90
5200;DHT22;2619;47.868;11.892;2023-05-07T02:34:18;9.60;99.90
5200;DHT22;2619;47.868;11.892;2023-05-07T02:36:44;9.60;99.90
5200;DHT22;2619;47.868;11.892;2023-05-07T02:39:11;9.50;99.90
5200;DHT22;2619;47.868;11.892;2023-05-07T02:41:37;9.60;99.90
5200;DHT22;2619;47.868;11.892;2023-05-07T02:44:03;9.60;99.90
5200;DHT22;2619;47.868;11.892;2023-05-07T02:46:29;9.60;99.90
5200;DHT22;2619;47.868;11.892;2023-05-07T02:48:54;9.50;99.90
5200;DHT22;2619;47.868;11.892;2023-05-07T02:51:21;9.50;99.90
5200;DHT22;2619;47.868;11.892;2023-05-07T02:53:47;9.50;99.90
5200;DHT22;2619;47.868;11.892;2023-05-07T02:56:12;9.50;99.90
5200;DHT22;2619;47.868;11.892;2023-05-07T02:58:38;9.50;99.90
5200;DHT22;2619;47.868;11.892;2023-05-07T03:01:10;9.50;99.90
5200;DHT22;2619;47.868;11.892;2023-05-07T03:03:36;9.40;99.90
5200;DHT22;2619;47.868;11.892;2023-05-07T03:06:01;9.40;99.90
5200;DHT22;2619;47.868;11.892;2023-05-07T03:08:27;9.40;99.90
5200;DHT22;2619;47.868;11.892;2023-05-07T03:10:53;9.30;99.90
5200;DHT22;2619;47.868;11.892;2023-05-07T03:13:18;9.30;99.90
5200;DHT22;2619;47.868;11.892;2023-05-07T03:15:44;9.30;99.90
5200;DHT22;2619;47.868;11.892;2023-05-07T03:18:09;9.30;99.90
5200;DHT22;2619;47.868;11.892;2023-05-07T03:20:35;9.20;99.90
5200;DHT22;2619;47.868;11.892;2023-05-07T03:23:01;9.20;99.90
5200;DHT22;2619;47.868;11.892;2023-05-07T03:25:27;9.10;99.90
5200;DHT22;2619;47.868;11.892;2023-05-07T03:27:53;9.10;99.90
5200;DHT22;2619;47.868;11.892;2023-05-07T03:30:18;9.00;99.90
5200;DHT22;2619;47.868;11.892;2023-05-07T03:32:44;9.00;99.90
5200;DHT22;2619;47.868;11.892;2023-05-07T03:35:09;9.00;99.90
5200;DHT22;2619;47.868;11.892;2023-05-07T03:37:35;9.10;99.90
5200;DHT22;2619;47.868;11.892;2023-05-07T03:40:01;9.10;99.90
5200;DHT22;2619;47.868;11.892;2023-05-07T03:42:28;9.20;99.90
5200;DHT22;2619;47.868;11.892;2023-05-07T03:44:54;9.20;99.90
5200;DHT22;2619;47.868;11.892;2023-05-07T03:47:19;9.20;99.90
5200;DHT22;2619;47.868;11.892;2023-05-07T03:49:45;9.30;99.90
5200;DHT22;2619;47.868;11.892;2023-05-07T03:52:10;9.20;99.90
5200;DHT22;2619;47.868;11.892;2023-05-07T03:54:36;9.20;99.90
5200;DHT22;2619;47.868;11.892;2023-05-07T03:57:02;9.20;99.90
5200;DHT22;2619;47.868;11.892;2023-05-07T03:59:27;9.10;99.90
5200;DHT22;2619;47.868;11.892;2023-05-07T04:01:53;9.10;99.90
5200;DHT22;2619;47.868;11.892;2023-05-07T04:04:18;9.10;99.90
5200;DHT22;2619;47.868;11.892;2023-05-07T04:06:44;9.10;99.90
5200;DHT22;2619;47.868;11.892;2023-05-07T04:09:09;9.00;99.90
5200;DHT22;2619;47.868;11.892;2023-05-07T04:11:35;9.10;99.90
5200;DHT22;2619;47.868;11.892;2023-05-07T04:14:01;9.00;99.90
5200;DHT22;2619;47.868;11.892;2023-05-07T04:16:27;9.00;99.90
5200;DHT22;2619;47.868;11.892;2023-05-07T04:18:52;9.10;99.90
5200;DHT22;2619;47.868;11.892;2023-05-07T04:21:19;9.20;99.90
5200;DHT22;2619;47.868;11.892;2023-05-07T04:23:46;9.30;99.90
5200;DHT22;2619;47.868;11.892;2023-05-07T04:26:12;9.40;99.90
5200;DHT22;2619;47.868;11.892;2023-05-07T04:28:38;9.50;99.90
5200;DHT22;2619;47.868;11.892;2023-05-07T04:31:04;9.60;99.90
5200;DHT22;2619;47.868;11.892;2023-05-07T04:33:31;9.60;99.90
5200;DHT22;2619;47.868;11.892;2023-05-07T04:35:56;9.70;99.90
5200;DHT22;2619;47.868;11.892;2023-05-07T04:38:22;9.70;99.90
5200;DHT22;2619;47.868;11.892;2023-05-07T04:40:49;9.80;99.90
5200;DHT22;2619;47.868;11.892;2023-05-07T04:43:14;9.70;99.90
5200;DHT22;2619;47.868;11.892;2023-05-07T04:45:41;9.70;99.90
5200;DHT22;2619;47.868;11.892;2023-05-07T04:48:08;9.80;99.90
5200;DHT22;2619;47.868;11.892;2023-05-07T04:50:34;9.80;99.90
5200;DHT22;2619;47.868;11.892;2023-05-07T04:52:59;9.90;99.90
5200;DHT22;2619;47.868;11.892;2023-05-07T04:55:25;10.00;99.90
5200;DHT22;2619;47.868;11.892;2023-05-07T04:57:52;10.20;99.90
5200;DHT22;2619;47.868;11.892;2023-05-07T05:00:18;10.30;99.90
5200;DHT22;2619;47.868;11.892;2023-05-07T05:02:45;10.30;99.90
5200;DHT22;2619;47.868;11.892;2023-05-07T05:05:10;10.50;99.90
5200;DHT22;2619;47.868;11.892;2023-05-07T05:07:36;10.60;99.90
5200;DHT22;2619;47.868;11.892;2023-05-07T05:10:02;10.90;99.90
5200;DHT22;2619;47.868;11.892;2023-05-07T05:12:29;11.00;99.90
5200;DHT22;2619;47.868;11.892;2023-05-07T05:14:55;11.50;99.90
5200;DHT22;2619;47.868;11.892;2023-05-07T05:17:21;11.90;99.90
5200;DHT22;2619;47.868;11.892;2023-05-07T05:19:46;12.30;99.90
5200;DHT22;2619;47.868;11.892;2023-05-07T05:22:12;12.70;99.90
5200;DHT22;2619;47.868;11.892;2023-05-07T05:24:38;13.00;99.90
5200;DHT22;2619;47.868;11.892;2023-05-07T05:27:04;13.10;99.90
5200;DHT22;2619;47.868;11.892;2023-05-07T05:29:29;13.50;99.90
5200;DHT22;2619;47.868;11.892;2023-05-07T05:31:57;13.70;99.90
5200;DHT22;2619;47.868;11.892;2023-05-07T05:34:22;13.90;99.90
5200;DHT22;2619;47.868;11.892;2023-05-07T05:36:48;14.20;99.90
5200;DHT22;2619;47.868;11.892;2023-05-07T05:39:13;14.50;99.90
5200;DHT22;2619;47.868;11.892;2023-05-07T05:41:39;14.80;99.90
5200;DHT22;2619;47.868;11.892;2023-05-07T05:44:06;15.00;99.90
5200;DHT22;2619;47.868;11.892;2023-05-07T05:46:31;15.20;99.90
5200;DHT22;2619;47.868;11.892;2023-05-07T05:48:57;15.50;99.90
5200;DHT22;2619;47.868;11.892;2023-05-07T05:51:23;15.70;99.90
5200;DHT22;2619;47.868;11.892;2023-05-07T05:53:48;15.80;99.90
5200;DHT22;2619;47.868;11.892;2023-05-07T05:56:15;15.90;99.90
5200;DHT22;2619;47.868;11.892;2023-05-07T05:58:41;15.90;99.90
5200;DHT22;2619;47.868;11.892;2023-05-07T06:01:06;15.90;99.90
5200;DHT22;2619;47.868;11.892;2023-05-07T06:03:32;16.10;99.90
5200;DHT22;2619;47.868;11.892;2023-05-07T06:05:58;16.40;99.90
5200;DHT22;2619;47.868;11.892;2023-05-07T06:08:25;16.50;99.90
5200;DHT22;2619;47.868;11.892;2023-05-07T06:10:51;16.80;99.90
5200;DHT22;2619;47.868;11.892;2023-05-07T06:13:16;16.80;99.90
5200;DHT22;2619;47.868;11.892;2023-05-07T06:15:42;17.00;99.90
5200;DHT22;2619;47.868;11.892;2023-05-07T06:18:08;17.30;99.90
5200;DHT22;2619;47.868;11.892;2023-05-07T06:20:33;17.40;99.90
5200;DHT22;2619;47.868;11.892;2023-05-07T06:22:59;17.40;99.90
5200;DHT22;2619;47.868;11.892;2023-05-07T06:25:24;17.50;99.90
5200;DHT22;2619;47.868;11.892;2023-05-07T06:27:50;17.70;99.90
5200;DHT22;2619;47.868;11.892;2023-05-07T06:30:16;17.90;99.90
5200;DHT22;2619;47.868;11.892;2023-05-07T06:32:41;18.00;99.90
5200;DHT22;2619;47.868;11.892;2023-05-07T06:35:07;17.90;99.90
5200;DHT22;2619;47.868;11.892;2023-05-07T06:37:33;18.60;99.90
5200;DHT22;2619;47.868;11.892;2023-05-07T06:39:58;19.00;99.90
5200;DHT22;2619;47.868;11.892;2023-05-07T06:42:24;19.20;99.90
5200;DHT22;2619;47.868;11.892;2023-05-07T06:44:50;19.40;99.90
5200;DHT22;2619;47.868;11.892;2023-05-07T06:47:15;19.80;99.90
5200;DHT22;2619;47.868;11.892;2023-05-07T06:49:41;19.90;99.90
5200;DHT22;2619;47.868;11.892;2023-05-07T06:52:06;20.00;99.90
5200;DHT22;2619;47.868;11.892;2023-05-07T06:54:32;20.10;99.90
5200;DHT22;2619;47.868;11.892;2023-05-07T06:56:57;19.80;99.90
5200;DHT22;2619;47.868;11.892;2023-05-07T06:59:23;20.00;99.90
5200;DHT22;2619;47.868;11.892;2023-05-07T07:01:49;20.00;99.90
5200;DHT22;2619;47.868;11.892;2023-05-07T07:04:14;20.30;99.90
5200;DHT22;2619;47.868;11.892;2023-05-07T07:06:40;20.10;99.90
5200;DHT22;2619;47.868;11.892;2023-05-07T07:09:06;20.30;99.90
5200;DHT22;2619;47.868;11.892;2023-05-07T07:11:31;20.20;99.90
5200;DHT22;2619;47.868;11.892;2023-05-07T07:13:57;20.00;99.90
5200;DHT22;2619;47.868;11.892;2023-05-07T07:16:24;19.90;99.90
5200;DHT22;2619;47.868;11.892;2023-05-07T07:18:49;19.70;99.90
5200;DHT22;2619;47.868;11.892;2023-05-07T07:21:15;19.50;99.90
5200;DHT22;2619;47.868;11.892;2023-05-07T07:23:41;19.50;99.90
5200;DHT22;2619;47.868;11.892;2023-05-07T07:26:07;19.20;99.90
5200;DHT22;2619;47.868;11.892;2023-05-07T07:28:32;19.30;99.90
5200;DHT22;2619;47.868;11.892;2023-05-07T07:30:58;19.60;99.90
5200;DHT22;2619;47.868;11.892;2023-05-07T07:33:23;19.90;99.90
5200;DHT22;2619;47.868;11.892;2023-05-07T07:35:49;20.20;99.90
5200;DHT22;2619;47.868;11.892;2023-05-07T07:38:14;20.40;99.90
5200;DHT22;2619;47.868;11.892;2023-05-07T07:40:40;20.40;99.90
5200;DHT22;2619;47.868;11.892;2023-05-07T07:43:06;20.50;99.90
5200;DHT22;2619;47.868;11.892;2023-05-07T07:45:31;20.70;99.90
5200;DHT22;2619;47.868;11.892;2023-05-07T07:47:57;20.60;99.90
5200;DHT22;2619;47.868;11.892;2023-05-07T07:50:23;20.60;99.90
5200;DHT22;2619;47.868;11.892;2023-05-07T07:52:48;20.20;99.90
5200;DHT22;2619;47.868;11.892;2023-05-07T07:55:14;20.00;99.90
5200;DHT22;2619;47.868;11.892;2023-05-07T07:57:43;20.10;99.90
5200;DHT22;2619;47.868;11.892;2023-05-07T08:00:09;20.00;99.90
5200;DHT22;2619;47.868;11.892;2023-05-07T08:02:35;20.10;99.90
5200;DHT22;2619;47.868;11.892;2023-05-07T08:05:00;20.20;99.90
5200;DHT22;2619;47.868;11.892;2023-05-07T08:07:26;20.10;99.90
5200;DHT22;2619;47.868;11.892;2023-05-07T08:09:51;20.10;99.90
5200;DHT22;2619;47.868;11.892;2023-05-07T08:12:18;20.30;99.90
5200;DHT22;2619;47.868;11.892;2023-05-07T08:14:43;20.30;99.90
5200;DHT22;2619;47.868;11.892;2023-05-07T08:17:09;20.40;99.90
5200;DHT22;2619;47.868;11.892;2023-05-07T08:19:35;20.40;99.90
5200;DHT22;2619;47.868;11.892;2023-05-07T08:22:02;20.50;99.90
5200;DHT22;2619;47.868;11.892;2023-05-07T08:24:29;20.60;99.90
5200;DHT22;2619;47.868;11.892;2023-05-07T08:26:54;20.60;99.90
5200;DHT22;2619;47.868;11.892;2023-05-07T08:29:20;20.30;99.90
5200;DHT22;2619;47.868;11.892;2023-05-07T08:31:46;20.40;99.90
5200;DHT22;2619;47.868;11.892;2023-05-07T08:34:11;20.50;99.90
5200;DHT22;2619;47.868;11.892;2023-05-07T08:36:37;20.60;99.90
5200;DHT22;2619;47.868;11.892;2023-05-07T08:39:03;20.90;99.90
5200;DHT22;2619;47.868;11.892;2023-05-07T08:41:29;20.90;99.90
5200;DHT22;2619;47.868;11.892;2023-05-07T08:43:58;21.00;99.90
5200;DHT22;2619;47.868;11.892;2023-05-07T08:46:25;21.10;99.90
5200;DHT22;2619;47.868;11.892;2023-05-07T08:48:52;21.20;99.90
5200;DHT22;2619;47.868;11.892;2023-05-07T08:51:19;21.40;99.90
5200;DHT22;2619;47.868;11.892;2023-05-07T08:53:46;21.50;99.90
5200;DHT22;2619;47.868;11.892;2023-05-07T08:56:14;21.60;99.90
5200;DHT22;2619;47.868;11.892;2023-05-07T08:58:45;21.80;99.90
5200;DHT22;2619;47.868;11.892;2023-05-07T09:01:15;21.80;99.90
5200;DHT22;2619;47.868;11.892;2023-05-07T09:03:44;21.70;99.90
5200;DHT22;2619;47.868;11.892;2023-05-07T09:06:10;21.60;99.90
5200;DHT22;2619;47.868;11.892;2023-05-07T09:08:36;21.60;99.90
5200;DHT22;2619;47.868;11.892;2023-05-07T09:11:02;21.80;99.90
5200;DHT22;2619;47.868;11.892;2023-05-07T09:13:28;21.70;99.90
5200;DHT22;2619;47.868;11.892;2023-05-07T09:15:55;21.60;99.90
5200;DHT22;2619;47.868;11.892;2023-05-07T09:18:20;21.70;99.90
5200;DHT22;2619;47.868;11.892;2023-05-07T09:20:46;21.70;99.90
5200;DHT22;2619;47.868;11.892;2023-05-07T09:23:12;21.80;99.90
5200;DHT22;2619;47.868;11.892;2023-05-07T09:25:38;22.00;99.90
5200;DHT22;2619;47.868;11.892;2023-05-07T09:28:04;22.10;99.90
5200;DHT22;2619;47.868;11.892;2023-05-07T09:30:34;22.20;99.90
5200;DHT22;2619;47.868;11.892;2023-05-07T09:33:02;22.10;99.90
5200;DHT22;2619;47.868;11.892;2023-05-07T09:35:28;22.10;99.90
5200;DHT22;2619;47.868;11.892;2023-05-07T09:37:56;21.80;99.90
5200;DHT22;2619;47.868;11.892;2023-05-07T09:40:23;21.90;99.90
5200;DHT22;2619;47.868;11.892;2023-05-07T09:42:49;22.00;99.90
5200;DHT22;2619;47.868;11.892;2023-05-07T09:45:16;22.20;99.90
5200;DHT22;2619;47.868;11.892;2023-05-07T09:47:43;22.20;99.90
5200;DHT22;2619;47.868;11.892;2023-05-07T09:50:12;22.30;99.90
5200;DHT22;2619;47.868;11.892;2023-05-07T09:52:40;22.50;99.90
5200;DHT22;2619;47.868;11.892;2023-05-07T09:55:07;22.40;99.90
5200;DHT22;2619;47.868;11.892;2023-05-07T09:57:34;22.50;99.90
5200;DHT22;2619;47.868;11.892;2023-05-07T10:00:01;22.60;99.90
5200;DHT22;2619;47.868;11.892;2023-05-07T10:02:30;22.70;99.90
5200;DHT22;2619;47.868;11.892;2023-05-07T10:04:57;22.70;99.90
5200;DHT22;2619;47.868;11.892;2023-05-07T10:07:25;22.50;99.90
5200;DHT22;2619;47.868;11.892;2023-05-07T10:09:52;22.40;99.90
5200;DHT22;2619;47.868;11.892;2023-05-07T10:12:19;22.60;99.90
5200;DHT22;2619;47.868;11.892;2023-05-07T10:14:45;22.80;99.90
5200;DHT22;2619;47.868;11.892;2023-05-07T10:17:12;22.60;99.90
5200;DHT22;2619;47.868;11.892;2023-05-07T10:19:39;22.60;99.90
5200;DHT22;2619;47.868;11.892;2023-05-07T10:22:06;22.80;99.90
5200;DHT22;2619;47.868;11.892;2023-05-07T10:24:34;23.00;99.90
5200;DHT22;2619;47.868;11.892;2023-05-07T10:27:07;23.10;99.90
5200;DHT22;2619;47.868;11.892;2023-05-07T10:29:38;23.40;99.90
5200;DHT22;2619;47.868;11.892;2023-05-07T10:34:53;24.20;99.90
5200;DHT22;2619;47.868;11.892;2023-05-07T10:37:20;24.30;99.90
5200;DHT22;2619;47.868;11.892;2023-05-07T10:39:46;24.40;99.90
5200;DHT22;2619;47.868;11.892;2023-05-07T10:42:14;24.40;99.90
5200;DHT22;2619;47.868;11.892;2023-05-07T10:44:40;24.00;99.90
5200;DHT22;2619;47.868;11.892;2023-05-07T10:47:06;23.80;99.90
5200;DHT22;2619;47.868;11.892;2023-05-07T10:52:22;24.10;99.90
5200;DHT22;2619;47.868;11.892;2023-05-07T10:57:46;24.50;99.90
5200;DHT22;2619;47.868;11.892;2023-05-07T11:05:25;24.50;99.90
5200;DHT22;2619;47.868;11.892;2023-05-07T11:08:01;25.00;99.90
5200;DHT22;2619;47.868;11.892;2023-05-07T11:10:52;25.20;99.90
5200;DHT22;2619;47.868;11.892;2023-05-07T11:13:45;24.70;99.90
5200;DHT22;2619;47.868;11.892;2023-05-07T11:16:22;25.00;99.90
5200;DHT22;2619;47.868;11.892;2023-05-07T11:18:50;25.20;99.90
5200;DHT22;2619;47.868;11.892;2023-05-07T11:23:58;25.50;99.90
5200;DHT22;2619;47.868;11.892;2023-05-07T11:26:25;25.60;99.90
5200;DHT22;2619;47.868;11.892;2023-05-07T11:28:51;25.80;99.90
5200;DHT22;2619;47.868;11.892;2023-05-07T11:31:24;25.70;99.90
5200;DHT22;2619;47.868;11.892;2023-05-07T11:33:51;25.90;99.90
5200;DHT22;2619;47.868;11.892;2023-05-07T11:36:18;26.00;99.20
5200;DHT22;2619;47.868;11.892;2023-05-07T11:38:44;26.00;99.90
5200;DHT22;2619;47.868;11.892;2023-05-07T11:41:09;25.70;99.90
5200;DHT22;2619;47.868;11.892;2023-05-07T11:43:35;25.30;99.90
5200;DHT22;2619;47.868;11.892;2023-05-07T11:46:11;24.80;99.90
5200;DHT22;2619;47.868;11.892;2023-05-07T11:48:38;24.70;99.90
5200;DHT22;2619;47.868;11.892;2023-05-07T11:51:05;25.00;99.90
5200;DHT22;2619;47.868;11.892;2023-05-07T11:53:39;25.00;99.90
5200;DHT22;2619;47.868;11.892;2023-05-07T11:56:13;25.00;99.90
5200;DHT22;2619;47.868;11.892;2023-05-07T11:58:40;25.40;99.90
5200;DHT22;2619;47.868;11.892;2023-05-07T12:01:08;25.00;99.90
5200;DHT22;2619;47.868;11.892;2023-05-07T12:03:39;25.10;99.90
5200;DHT22;2619;47.868;11.892;2023-05-07T12:06:08;24.90;99.90
5200;DHT22;2619;47.868;11.892;2023-05-07T12:08:37;25.20;99.90
5200;DHT22;2619;47.868;11.892;2023-05-07T12:11:03;25.20;99.90
5200;DHT22;2619;47.868;11.892;2023-05-07T12:13:32;25.40;98.50
5200;DHT22;2619;47.868;11.892;2023-05-07T12:15:57;25.40;99.90
5200;DHT22;2619;47.868;11.892;2023-05-07T12:18:23;25.60;99.90
5200;DHT22;2619;47.868;11.892;2023-05-07T12:20:50;25.60;98.60
5200;DHT22;2619;47.868;11.892;2023-05-07T12:23:16;25.20;99.90
5200;DHT22;2619;47.868;11.892;2023-05-07T12:25:42;25.40;99.90
5200;DHT22;2619;47.868;11.892;2023-05-07T12:28:19;25.60;99.00
5200;DHT22;2619;47.868;11.892;2023-05-07T12:30:47;25.30;98.70
5200;DHT22;2619;47.868;11.892;2023-05-07T12:33:24;24.50;99.90
5200;DHT22;2619;47.868;11.892;2023-05-07T12:35:50;24.30;99.90
5200;DHT22;2619;47.868;11.892;2023-05-07T12:38:17;24.40;99.90
5200;DHT22;2619;47.868;11.892;2023-05-07T12:40:48;24.80;99.70
5200;DHT22;2619;47.868;11.892;2023-05-07T12:43:27;25.40;99.90
5200;DHT22;2619;47.868;11.892;2023-05-07T12:45:57;25.80;99.50
5200;DHT22;2619;47.868;11.892;2023-05-07T12:48:23;25.80;99.90
5200;DHT22;2619;47.868;11.892;2023-05-07T12:50:53;25.50;99.90
5200;DHT22;2619;47.868;11.892;2023-05-07T12:53:25;25.10;99.90
5200;DHT22;2619;47.868;11.892;2023-05-07T12:55:53;25.10;98.00
5200;DHT22;2619;47.868;11.892;2023-05-07T12:58:25;25.10;99.90
5200;DHT22;2619;47.868;11.892;2023-05-07T13:00:51;25.20;99.30
5200;DHT22;2619;47.868;11.892;2023-05-07T13:03:24;25.30;98.30
5200;DHT22;2619;47.868;11.892;2023-05-07T13:05:51;25.40;98.20
5200;DHT22;2619;47.868;11.892;2023-05-07T13:08:41;25.40;99.00
5200;DHT22;2619;47.868;11.892;2023-05-07T13:11:11;25.50;99.90
5200;DHT22;2619;47.868;11.892;2023-05-07T13:13:38;25.60;96.00
5200;DHT22;2619;47.868;11.892;2023-05-07T13:16:05;25.70;97.90
5200;DHT22;2619;47.868;11.892;2023-05-07T13:18:32;25.90;97.10
5200;DHT22;2619;47.868;11.892;2023-05-07T13:20:58;26.10;95.20
5200;DHT22;2619;47.868;11.892;2023-05-07T13:23:24;26.20;97.40
5200;DHT22;2619;47.868;11.892;2023-05-07T13:25:50;26.10;97.50
5200;DHT22;2619;47.868;11.892;2023-05-07T13:28:17;26.00;98.00
5200;DHT22;2619;47.868;11.892;2023-05-07T13:30:43;25.40;97.60
5200;DHT22;2619;47.868;11.892;2023-05-07T13:33:09;25.20;96.90
5200;DHT22;2619;47.868;11.892;2023-05-07T13:35:35;25.00;96.70
5200;DHT22;2619;47.868;11.892;2023-05-07T13:38:00;25.00;96.90
5200;DHT22;2619;47.868;11.892;2023-05-07T13:40:26;24.70;98.50
5200;DHT22;2619;47.868;11.892;2023-05-07T13:42:52;24.50;97.60
5200;DHT22;2619;47.868;11.892;2023-05-07T13:45:18;24.40;98.00
5200;DHT22;2619;47.868;11.892;2023-05-07T13:47:45;24.20;98.50
5200;DHT22;2619;47.868;11.892;2023-05-07T13:50:11;24.20;98.90
5200;DHT22;2619;47.868;11.892;2023-05-07T13:52:40;24.10;98.00
5200;DHT22;2619;47.868;11.892;2023-05-07T13:55:06;24.30;98.70
5200;DHT22;2619;47.868;11.892;2023-05-07T13:57:32;24.40;99.40
5200;DHT22;2619;47.868;11.892;2023-05-07T13:59:58;24.40;99.60
5200;DHT22;2619;47.868;11.892;2023-05-07T14:02:23;24.40;97.90
5200;DHT22;2619;47.868;11.892;2023-05-07T14:04:49;24.60;97.90
5200;DHT22;2619;47.868;11.892;2023-05-07T14:07:14;24.80;98.90
5200;DHT22;2619;47.868;11.892;2023-05-07T14:09:40;24.80;99.50
5200;DHT22;2619;47.868;11.892;2023-05-07T14:12:06;24.90;99.60
5200;DHT22;2619;47.868;11.892;2023-05-07T14:14:32;24.60;97.90
5200;DHT22;2619;47.868;11.892;2023-05-07T14:16:57;24.70;99.10
5200;DHT22;2619;47.868;11.892;2023-05-07T14:19:23;24.60;97.50
5200;DHT22;2619;47.868;11.892;2023-05-07T14:21:49;24.60;97.80
5200;DHT22;2619;47.868;11.892;2023-05-07T14:24:14;24.60;97.90
5200;DHT22;2619;47.868;11.892;2023-05-07T14:26:40;24.40;98.00
5200;DHT22;2619;47.868;11.892;2023-05-07T14:29:05;24.40;98.00
5200;DHT22;2619;47.868;11.892;2023-05-07T14:31:31;24.40;97.80
5200;DHT22;2619;47.868;11.892;2023-05-07T14:33:58;24.30;97.80
5200;DHT22;2619;47.868;11.892;2023-05-07T14:36:24;24.20;98.10
5200;DHT22;2619;47.868;11.892;2023-05-07T14:38:52;24.20;98.40
5200;DHT22;2619;47.868;11.892;2023-05-07T14:41:19;23.90;97.50
5200;DHT22;2619;47.868;11.892;2023-05-07T14:43:46;23.80;97.80
5200;DHT22;2619;47.868;11.892;2023-05-07T14:46:16;23.60;98.50
5200;DHT22;2619;47.868;11.892;2023-05-07T14:48:43;23.50;97.80
5200;DHT22;2619;47.868;11.892;2023-05-07T14:51:10;23.40;97.60
5200;DHT22;2619;47.868;11.892;2023-05-07T14:53:36;23.30;98.10
5200;DHT22;2619;47.868;11.892;2023-05-07T14:56:02;23.20;98.90
5200;DHT22;2619;47.868;11.892;2023-05-07T14:58:28;23.20;98.70
5200;DHT22;2619;47.868;11.892;2023-05-07T15:00:54;23.10;98.70
5200;DHT22;2619;47.868;11.892;2023-05-07T15:03:19;22.90;99.80
5200;DHT22;2619;47.868;11.892;2023-05-07T15:05:45;22.90;98.90
5200;DHT22;2619;47.868;11.892;2023-05-07T15:08:10;22.70;98.20
5200;DHT22;2619;47.868;11.892;2023-05-07T15:10:37;22.40;99.00
5200;DHT22;2619;47.868;11.892;2023-05-07T15:13:10;22.30;99.90
5200;DHT22;2619;47.868;11.892;2023-05-07T15:15:36;22.30;99.90
5200;DHT22;2619;47.868;11.892;2023-05-07T15:18:02;22.20;99.70
5200;DHT22;2619;47.868;11.892;2023-05-07T15:20:28;22.00;99.30
5200;DHT22;2619;47.868;11.892;2023-05-07T15:22:53;21.90;99.80
5200;DHT22;2619;47.868;11.892;2023-05-07T15:25:19;21.90;99.90
5200;DHT22;2619;47.868;11.892;2023-05-07T15:27:46;21.80;99.10
5200;DHT22;2619;47.868;11.892;2023-05-07T15:30:12;21.70;99.90
5200;DHT22;2619;47.868;11.892;2023-05-07T15:32:40;21.60;99.90
5200;DHT22;2619;47.868;11.892;2023-05-07T15:35:06;21.60;99.90
5200;DHT22;2619;47.868;11.892;2023-05-07T15:37:32;21.50;99.90
5200;DHT22;2619;47.868;11.892;2023-05-07T15:39:58;21.40;99.90
5200;DHT22;2619;47.868;11.892;2023-05-07T15:42:24;21.30;99.90
5200;DHT22;2619;47.868;11.892;2023-05-07T15:44:50;21.30;99.90
5200;DHT22;2619;47.868;11.892;2023-05-07T15:47:15;21.30;99.90
5200;DHT22;2619;47.868;11.892;2023-05-07T15:49:41;21.10;99.90
5200;DHT22;2619;47.868;11.892;2023-05-07T15:52:07;21.10;99.90
5200;DHT22;2619;47.868;11.892;2023-05-07T15:54:36;21.00;99.90
5200;DHT22;2619;47.868;11.892;2023-05-07T15:57:03;21.00;99.90
5200;DHT22;2619;47.868;11.892;2023-05-07T15:59:28;20.90;99.90
5200;DHT22;2619;47.868;11.892;2023-05-07T16:01:55;20.90;99.90